KHNR

Harlan Municipal Airport

Harlan, Iowa, USA
METAR KHNR 230755Z AUTO 28009KT 10SM OVC009 M01/M01 A3019 RMK AO2
Observed Flight Rules
Feb-23 @ 07:55 UTC (8 minutes ago) Instrument Flight Rules
Wind Visibility Clouds
280° at 9 knots 10 miles
  • Overcast at 900' AGL
Temperatures Readings
Current -1°C / 30°F
Dewpoint -1°C / 30°F
Humidity 100%
Altimeter 30.19" Hg
Pressure 1022 hPa
Elevation 375
METAR KHNR 230755Z AUTO 28009KT 10SM OVC009 M01/M01 A3019 RMK AO2
Observed Flight Rules
Feb-23 @ 07:55 UTC
(8 minutes ago)
IFR
Wind Visibility
280° at 9 knots 10 miles
Clouds
  • Overcast at 900' AGL
Temperature Dewpoint
-1°C / 30°F -1°C / 30°F
Humidity Altimeter Pressure
100% 30.19" Hg 1022 hPa